createdAt,value
2023-04-22T00:07:22.712Z,99283.56
2023-04-22T00:22:24.708Z,99309.25
2023-04-22T00:37:26.857Z,99313.47
2023-04-22T00:52:29.212Z,99324.94
2023-04-22T01:07:31.022Z,99319.50
2023-04-22T01:22:37.351Z,99323.69
2023-04-22T01:37:39.568Z,99326.31
2023-04-22T01:52:41.966Z,99319.25
2023-04-22T02:07:43.814Z,99324.03
2023-04-22T02:22:45.939Z,99316.72
2023-04-22T02:37:47.784Z,99328.06
2023-04-22T02:52:49.819Z,99338.59
2023-04-22T03:07:51.826Z,99356.00
2023-04-22T03:22:53.706Z,99375.97
2023-04-22T03:37:56.443Z,99399.22
2023-04-22T03:52:58.712Z,99419.81
2023-04-22T04:08:00.572Z,99435.69
2023-04-22T04:23:02.469Z,99447.72
2023-04-22T04:38:08.566Z,99455.63
2023-04-22T04:53:10.982Z,99471.19
2023-04-22T05:08:13.889Z,99478.03
2023-04-22T05:23:30.920Z,99490.63
2023-04-22T05:38:32.757Z,99502.03
2023-04-22T05:53:34.932Z,99504.19
2023-04-22T06:08:36.841Z,99523.25
2023-04-22T06:23:42.836Z,99528.34
2023-04-22T06:38:44.704Z,99546.66
2023-04-22T06:53:47.339Z,99549.66
2023-04-22T07:08:49.328Z,99566.72
2023-04-22T07:23:52.052Z,99575.16
2023-04-22T07:38:53.900Z,99593.47
2023-04-22T07:53:59.020Z,99595.31
2023-04-22T08:09:00.907Z,99610.25
2023-04-22T08:24:03.228Z,99606.66
2023-04-22T08:39:08.262Z,99618.44
2023-04-22T08:54:11.598Z,99646.59
2023-04-22T09:09:14.452Z,99638.31
2023-04-22T09:24:16.830Z,99650.69
2023-04-22T09:39:18.830Z,99657.09
2023-04-22T09:54:21.058Z,99658.03
2023-04-22T10:09:25.046Z,99673.16
2023-04-22T10:24:29.335Z,99687.00
2023-04-22T10:39:31.234Z,99713.03
2023-04-22T10:54:36.930Z,99696.06
2023-04-22T11:09:41.395Z,99719.56
2023-04-22T11:24:58.007Z,99729.34
2023-04-22T11:55:15.684Z,99725.72
2023-04-22T12:10:17.672Z,99724.31
2023-04-22T12:25:19.746Z,99732.59
2023-04-22T12:40:21.651Z,99726.53
2023-04-22T12:55:23.760Z,99736.88
2023-04-22T13:10:28.233Z,99736.22
2023-04-22T13:25:30.283Z,99744.00
2023-04-22T13:40:32.171Z,99735.66
2023-04-22T13:55:34.577Z,99762.44
2023-04-22T14:10:36.411Z,99769.66
2023-04-22T14:25:38.275Z,99778.72
2023-04-22T14:40:43.504Z,99794.28
2023-04-22T14:55:46.065Z,99807.28
2023-04-22T15:10:47.923Z,99821.19
2023-04-22T15:25:49.890Z,99842.34
2023-04-22T15:40:51.712Z,99854.28
2023-04-22T15:55:53.967Z,99852.00
2023-04-22T16:10:55.978Z,99868.53
2023-04-22T16:25:58.691Z,99896.91
2023-04-22T16:41:03.985Z,99899.78
2023-04-22T16:56:06.214Z,99922.25
2023-04-22T17:11:26.329Z,99931.41
2023-04-22T17:26:28.809Z,99952.41
2023-04-22T17:41:30.719Z,99972.69
2023-04-22T17:56:33.260Z,99980.09
2023-04-22T18:11:35.237Z,100010.25
2023-04-22T18:26:37.279Z,100012.00
2023-04-22T18:41:40.161Z,100024.47
2023-04-22T18:56:42.598Z,100029.03
2023-04-22T19:11:44.664Z,100030.22
2023-04-22T19:26:47.232Z,100028.88
2023-04-22T19:41:50.741Z,100020.59
2023-04-22T19:56:54.059Z,100027.03
2023-04-22T20:11:56.976Z,100018.84
2023-04-22T20:27:02.904Z,100045.28
2023-04-22T20:42:05.828Z,100059.22
2023-04-22T20:57:10.789Z,100057.28
2023-04-22T21:12:13.646Z,100058.09
2023-04-22T21:27:17.773Z,100038.91
2023-04-22T21:42:19.605Z,100056.41
2023-04-22T21:57:23.263Z,100075.97
2023-04-22T22:12:25.228Z,100074.13
2023-04-22T22:27:27.034Z,100071.41
2023-04-22T22:42:28.827Z,100093.31
2023-04-22T22:57:31.130Z,100102.28
2023-04-22T23:12:33.174Z,100098.03
2023-04-22T23:27:35.614Z,100113.16
2023-04-22T23:42:37.428Z,100126.56
2023-04-22T23:57:39.913Z,100129.44
